createdAt,value
2023-03-19T00:04:03.063Z,94305.38
2023-03-19T00:09:05.327Z,94305.22
2023-03-19T00:14:07.460Z,94299.88
2023-03-19T00:19:09.916Z,94310.72
2023-03-19T00:24:12.143Z,94321.28
2023-03-19T00:29:14.820Z,94312.22
2023-03-19T00:34:19.881Z,94335.56
2023-03-19T00:39:24.296Z,94341.09
2023-03-19T00:44:26.674Z,94350.03
2023-03-19T00:49:28.584Z,94344.88
2023-03-19T00:54:32.502Z,94356.00
2023-03-19T00:59:34.602Z,94373.25
2023-03-19T01:04:37.717Z,94356.16
2023-03-19T01:09:41.250Z,94349.75
2023-03-19T01:14:43.288Z,94348.50
2023-03-19T01:19:45.282Z,94353.38
2023-03-19T01:24:49.058Z,94365.84
2023-03-19T01:29:51.675Z,94372.72
2023-03-19T01:35:06.365Z,94367.56
2023-03-19T01:40:11.401Z,94376.19
2023-03-19T01:45:51.506Z,94375.38
2023-03-19T01:51:31.934Z,94377.41
2023-03-19T01:56:37.126Z,94383.63
2023-03-19T02:02:06.753Z,94383.94
2023-03-19T02:07:10.165Z,94361.31
2023-03-19T02:12:13.086Z,94381.03
2023-03-19T02:17:15.324Z,94378.69
2023-03-19T02:22:20.923Z,94377.56
2023-03-19T02:27:23.690Z,94366.09
2023-03-19T02:32:27.283Z,94386.03
2023-03-19T02:37:32.854Z,94383.66
2023-03-19T02:42:35.806Z,94394.56
2023-03-19T02:47:37.961Z,94397.84
2023-03-19T02:52:40.751Z,94397.63
2023-03-19T02:57:42.819Z,94403.50
2023-03-19T03:02:45.777Z,94400.88
2023-03-19T03:07:48.009Z,94407.31
2023-03-19T03:12:50.064Z,94417.59
2023-03-19T03:17:52.072Z,94408.59
2023-03-19T03:22:54.133Z,94412.31
2023-03-19T03:27:56.202Z,94409.88
2023-03-19T03:32:58.734Z,94409.03
2023-03-19T03:38:00.903Z,94409.13
2023-03-19T03:43:02.941Z,94404.75
2023-03-19T03:48:06.761Z,94418.00
2023-03-19T03:53:08.955Z,94420.19
2023-03-19T03:58:11.044Z,94424.94
2023-03-19T04:03:13.180Z,94423.75
2023-03-19T04:08:16.106Z,94398.31
2023-03-19T04:13:18.366Z,94415.88
2023-03-19T04:18:21.014Z,94430.47
2023-03-19T04:23:24.393Z,94435.59
2023-03-19T04:28:26.642Z,94432.84
2023-03-19T04:33:30.205Z,94429.00
2023-03-19T04:38:32.335Z,94431.00
2023-03-19T04:43:34.401Z,94441.50
2023-03-19T04:48:39.675Z,94451.75
2023-03-19T04:53:41.959Z,94433.28
2023-03-19T04:58:44.250Z,94453.72
2023-03-19T05:03:46.812Z,94455.47
2023-03-19T05:08:49.489Z,94468.06
2023-03-19T05:13:53.863Z,94465.22
2023-03-19T05:18:56.877Z,94468.75
2023-03-19T05:23:59.323Z,94469.72
2023-03-19T05:29:03.663Z,94473.44
2023-03-19T05:34:15.821Z,94477.09
2023-03-19T05:39:18.005Z,94478.00
2023-03-19T05:44:21.449Z,94492.22
2023-03-19T05:49:34.902Z,94494.28
2023-03-19T05:54:38.919Z,94497.03
2023-03-19T05:59:52.789Z,94500.72
2023-03-19T06:05:10.920Z,94503.56
2023-03-19T06:10:13.870Z,94505.50
2023-03-19T06:15:16.059Z,94517.78
2023-03-19T06:20:21.046Z,94519.06
2023-03-19T06:25:24.001Z,94529.50
2023-03-19T06:30:27.166Z,94529.25
2023-03-19T06:35:31.502Z,94536.59
2023-03-19T06:40:34.486Z,94543.81
2023-03-19T06:45:36.952Z,94532.50
2023-03-19T06:50:39.076Z,94552.13
2023-03-19T06:55:41.314Z,94554.19
2023-03-19T07:00:43.647Z,94559.47
2023-03-19T07:05:45.904Z,94566.84
2023-03-19T07:10:47.885Z,94573.22
2023-03-19T07:15:50.161Z,94563.00
2023-03-19T07:20:53.483Z,94577.28
2023-03-19T07:25:55.872Z,94589.38
2023-03-19T07:30:59.472Z,94597.47
2023-03-19T07:36:01.858Z,94599.47
2023-03-19T07:41:04.435Z,94597.91
2023-03-19T07:46:06.630Z,94607.19
2023-03-19T07:51:08.758Z,94609.53
2023-03-19T07:56:11.747Z,94610.13
2023-03-19T08:01:13.766Z,94617.94
2023-03-19T08:06:15.846Z,94625.91
2023-03-19T08:11:19.651Z,94632.91
2023-03-19T08:16:21.980Z,94646.66
2023-03-19T08:21:24.095Z,94634.94
2023-03-19T08:26:26.402Z,94623.69
2023-03-19T08:31:28.444Z,94643.09
2023-03-19T08:36:31.823Z,94653.47
2023-03-19T08:41:33.956Z,94660.19
2023-03-19T08:46:36.402Z,94664.13
2023-03-19T08:51:38.664Z,94664.53
2023-03-19T08:56:41.156Z,94667.81
2023-03-19T09:01:44.446Z,94665.41
2023-03-19T09:06:47.048Z,94654.28
2023-03-19T09:11:49.345Z,94664.47
2023-03-19T09:16:51.872Z,94658.72
2023-03-19T09:21:54.026Z,94660.41
2023-03-19T09:26:56.355Z,94666.94
2023-03-19T09:31:58.550Z,94656.94
2023-03-19T09:37:00.584Z,94661.81
2023-03-19T09:42:13.080Z,94657.06
2023-03-19T09:47:35.183Z,94663.69
2023-03-19T09:52:48.760Z,94672.94
2023-03-19T09:57:53.508Z,94668.50
2023-03-19T10:03:14.488Z,94661.22
2023-03-19T10:08:52.046Z,94664.13
2023-03-19T10:14:21.445Z,94668.31
2023-03-19T10:19:54.115Z,94666.41
2023-03-19T10:24:57.347Z,94663.03
2023-03-19T10:29:59.625Z,94652.22
2023-03-19T10:35:24.599Z,94657.84
2023-03-19T10:40:34.508Z,94655.94
2023-03-19T10:45:39.006Z,94657.16
2023-03-19T10:50:59.365Z,94647.59
2023-03-19T10:56:05.233Z,94636.78
2023-03-19T11:01:12.677Z,94639.47
2023-03-19T11:06:35.088Z,94643.00
2023-03-19T11:11:43.890Z,94639.47
2023-03-19T11:16:57.093Z,94633.88
2023-03-19T11:22:13.687Z,94632.09
2023-03-19T11:27:15.692Z,94634.09
2023-03-19T11:32:36.427Z,94622.34
2023-03-19T11:37:52.861Z,94627.81
2023-03-19T11:43:28.985Z,94629.13
2023-03-19T11:48:49.659Z,94621.31
2023-03-19T11:54:06.921Z,94629.53
2023-03-19T11:59:30.522Z,94612.00
2023-03-19T12:05:03.422Z,94627.22
2023-03-19T12:10:17.482Z,94624.31
2023-03-19T12:16:01.434Z,94619.44
2023-03-19T12:21:12.879Z,94613.16
2023-03-19T12:26:35.803Z,94600.63
2023-03-19T12:31:48.043Z,94583.59
2023-03-19T12:37:08.695Z,94598.69
2023-03-19T12:42:13.526Z,94591.97
2023-03-19T12:47:41.964Z,94584.88
2023-03-19T12:52:47.147Z,94578.88
2023-03-19T12:57:52.734Z,94552.81
2023-03-19T13:03:13.884Z,94556.00
2023-03-19T13:08:38.240Z,94557.97
2023-03-19T13:13:46.674Z,94541.53
2023-03-19T13:19:28.292Z,94538.19
2023-03-19T13:24:39.267Z,94513.72
2023-03-19T13:30:07.569Z,94526.34
2023-03-19T13:35:33.584Z,94519.91
2023-03-19T13:40:44.818Z,94516.28
2023-03-19T13:45:52.869Z,94512.53
2023-03-19T13:51:01.048Z,94513.44
2023-03-19T13:56:12.815Z,94501.22
2023-03-19T14:01:27.797Z,94494.19
2023-03-19T14:06:41.336Z,94485.66
2023-03-19T14:11:43.506Z,94489.78
2023-03-19T14:16:46.921Z,94484.69
2023-03-19T14:21:51.886Z,94474.25
2023-03-19T14:26:54.313Z,94457.88
2023-03-19T14:32:03.129Z,94459.06
2023-03-19T14:37:44.910Z,94467.81
2023-03-19T14:43:08.322Z,94464.47
2023-03-19T14:48:19.168Z,94444.41
2023-03-19T14:53:38.433Z,94463.06
2023-03-19T14:58:57.719Z,94451.19
2023-03-19T15:04:07.942Z,94460.66
2023-03-19T15:09:22.592Z,94453.47
2023-03-19T15:14:28.318Z,94465.50
2023-03-19T15:19:32.336Z,94455.00
2023-03-19T15:24:36.236Z,94456.16
2023-03-19T15:29:38.530Z,94457.19
2023-03-19T15:34:42.645Z,94437.34
2023-03-19T15:39:52.748Z,94445.84
2023-03-19T15:45:10.557Z,94455.50
2023-03-19T15:50:18.540Z,94449.97
2023-03-19T15:55:21.518Z,94446.94
2023-03-19T16:00:24.839Z,94447.84
2023-03-19T16:05:28.698Z,94437.47
2023-03-19T16:10:38.479Z,94441.72
2023-03-19T16:15:44.439Z,94444.47
2023-03-19T16:21:01.424Z,94439.31
2023-03-19T16:26:17.618Z,94442.69
2023-03-19T16:31:22.662Z,94450.19
2023-03-19T16:36:29.050Z,94448.59
2023-03-19T16:41:35.549Z,94449.63
2023-03-19T16:46:38.145Z,94448.41
2023-03-19T16:51:40.288Z,94438.56
2023-03-19T16:56:42.599Z,94440.22
2023-03-19T17:01:44.873Z,94450.41
2023-03-19T17:06:47.157Z,94454.09
2023-03-19T17:11:50.894Z,94464.75
2023-03-19T17:16:54.631Z,94468.81
2023-03-19T17:21:57.857Z,94457.38
2023-03-19T17:27:02.726Z,94466.38
2023-03-19T17:32:05.754Z,94472.84
2023-03-19T17:37:12.949Z,94477.09
2023-03-19T17:42:24.049Z,94486.94
2023-03-19T17:47:26.221Z,94488.28
2023-03-19T17:52:30.623Z,94500.50
2023-03-19T17:57:32.732Z,94510.53
2023-03-19T18:02:36.494Z,94507.81
2023-03-19T18:07:38.581Z,94530.84
2023-03-19T18:12:40.692Z,94532.56
2023-03-19T18:17:49.338Z,94535.00
2023-03-19T18:22:51.528Z,94534.41
2023-03-19T18:27:54.221Z,94540.91
2023-03-19T18:32:58.752Z,94539.75
2023-03-19T18:38:00.995Z,94540.53
2023-03-19T18:43:03.070Z,94541.91
2023-03-19T18:48:34.679Z,94570.38
2023-03-19T18:53:37.901Z,94556.31
2023-03-19T18:58:40.105Z,94565.31
2023-03-19T19:03:42.689Z,94571.16
2023-03-19T19:08:44.711Z,94581.22
2023-03-19T19:13:56.206Z,94566.25
2023-03-19T19:18:58.570Z,94585.59
2023-03-19T19:24:00.609Z,94590.19
2023-03-19T19:29:02.886Z,94602.16
2023-03-19T19:34:05.045Z,94612.31
2023-03-19T19:39:07.155Z,94602.59
2023-03-19T19:44:17.411Z,94616.31
2023-03-19T19:49:20.053Z,94632.75
2023-03-19T19:54:25.148Z,94636.84
2023-03-19T19:59:27.211Z,94628.44
2023-03-19T20:04:30.612Z,94633.97
2023-03-19T20:09:33.277Z,94656.97
2023-03-19T20:14:35.206Z,94641.94
2023-03-19T20:19:37.377Z,94655.69
2023-03-19T20:24:39.673Z,94648.44
2023-03-19T20:29:41.725Z,94658.50
2023-03-19T20:34:43.785Z,94667.00
2023-03-19T20:39:46.266Z,94663.66
2023-03-19T20:44:48.953Z,94680.03
2023-03-19T20:49:51.410Z,94680.88
2023-03-19T20:54:53.594Z,94686.56
2023-03-19T20:59:56.112Z,94694.66
2023-03-19T21:04:58.220Z,94700.94
2023-03-19T21:10:01.538Z,94701.88
2023-03-19T21:15:04.103Z,94697.97
2023-03-19T21:20:06.790Z,94705.25
2023-03-19T21:25:21.020Z,94685.50
2023-03-19T21:30:23.327Z,94697.91
2023-03-19T21:35:26.658Z,94686.13
2023-03-19T21:40:31.219Z,94701.25
2023-03-19T21:45:36.661Z,94690.47
2023-03-19T21:50:40.072Z,94707.59
2023-03-19T21:55:42.499Z,94711.13
2023-03-19T22:00:45.021Z,94718.97
2023-03-19T22:05:51.466Z,94729.81
2023-03-19T22:10:58.097Z,94718.38
2023-03-19T22:16:00.822Z,94729.06
2023-03-19T22:21:02.932Z,94722.63
2023-03-19T22:26:06.495Z,94729.06
2023-03-19T22:31:08.515Z,94728.75
2023-03-19T22:36:13.177Z,94729.09
2023-03-19T22:41:15.137Z,94720.13
2023-03-19T22:46:19.095Z,94712.38
2023-03-19T22:51:23.986Z,94705.63
2023-03-19T22:56:25.966Z,94691.94
2023-03-19T23:01:37.675Z,94699.50
2023-03-19T23:06:39.798Z,94701.03
2023-03-19T23:11:41.883Z,94700.22
2023-03-19T23:16:46.830Z,94708.06
2023-03-19T23:21:50.045Z,94706.03
2023-03-19T23:26:54.082Z,94715.41
2023-03-19T23:31:58.722Z,94716.66
2023-03-19T23:37:00.798Z,94714.28
2023-03-19T23:42:02.755Z,94723.53
2023-03-19T23:47:04.796Z,94710.00
2023-03-19T23:52:07.080Z,94725.50
2023-03-19T23:57:13.977Z,94723.31
